Time;durP1;ratioP1;P1;durP2;ratioP2;P2;SDS_P1;SDS_P2;PMS_P1;PMS_P2;Temp;Humidity;BMP_temperature;BMP_pressure;BME280_temperature;BME280_humidity;BME280_pressure;Samples;Min_cycle;Max_cycle;Signal;HPM_P1;HPM_P2
2021/05/24 00:01:05;;;;;;;3.00;2.80;;;11.10;99.90;;;;;;5115218;28;20221;-75
2021/05/24 00:03:31;;;;;;;3.10;2.73;;;11.10;99.90;;;;;;5114545;28;20176;-75
2021/05/24 00:05:57;;;;;;;8.50;2.90;;;11.10;99.90;;;;;;5114589;28;20632;-75
2021/05/24 00:08:22;;;;;;;4.70;2.67;;;11.10;99.90;;;;;;5096098;28;20193;-75
2021/05/24 00:10:48;;;;;;;2.60;2.40;;;11.10;99.90;;;;;;5089505;28;20217;-75
2021/05/24 00:13:16;;;;;;;3.03;2.80;;;11.00;99.90;;;;;;5094264;28;20172;-75
2021/05/24 00:15:44;;;;;;;2.87;2.67;;;11.00;99.90;;;;;;5092293;28;20771;-75
2021/05/24 00:18:10;;;;;;;3.10;2.90;;;11.00;99.90;;;;;;5093708;28;20410;-75
2021/05/24 00:20:39;;;;;;;3.03;2.83;;;11.00;99.90;;;;;;5093828;28;20420;-75
2021/05/24 00:23:05;;;;;;;6.13;3.17;;;10.90;99.90;;;;;;5093711;28;20415;-74
2021/05/24 00:25:31;;;;;;;3.23;2.93;;;10.90;99.90;;;;;;5093624;28;20422;-74
2021/05/24 00:27:57;;;;;;;3.57;3.27;;;10.90;99.90;;;;;;5093569;28;20415;-74
2021/05/24 00:30:26;;;;;;;4.90;4.03;;;10.90;99.90;;;;;;5093723;28;20177;-74
2021/05/24 00:32:52;;;;;;;4.50;3.37;;;10.90;99.90;;;;;;5093464;28;20400;-75
2021/05/24 00:35:17;;;;;;;5.03;4.63;;;10.90;99.90;;;;;;5093672;28;20396;-75
2021/05/24 00:37:43;;;;;;;4.90;4.13;;;10.90;99.90;;;;;;5093196;28;20215;-75
2021/05/24 00:40:10;;;;;;;4.13;3.73;;;10.90;99.90;;;;;;5093634;28;20200;-75
2021/05/24 00:42:36;;;;;;;3.70;3.40;;;10.90;99.90;;;;;;5093437;28;20373;-75
2021/05/24 00:45:05;;;;;;;4.57;4.17;;;10.90;99.90;;;;;;5093427;28;20402;-75
2021/05/24 00:47:31;;;;;;;5.50;5.10;;;10.80;99.90;;;;;;5093219;28;20798;-75
2021/05/24 00:49:56;;;;;;;4.27;3.97;;;10.70;99.90;;;;;;5093274;28;20415;-75
2021/05/24 00:52:22;;;;;;;5.47;3.93;;;10.80;99.90;;;;;;5093287;28;20636;-76
2021/05/24 00:54:47;;;;;;;3.93;3.60;;;10.80;99.90;;;;;;5093257;28;20239;-75
2021/05/24 00:57:13;;;;;;;4.80;3.80;;;10.70;99.90;;;;;;5091033;28;20241;-76
2021/05/24 00:59:38;;;;;;;5.00;4.60;;;10.70;99.90;;;;;;5092982;28;20194;-75
2021/05/24 01:02:05;;;;;;;4.73;4.33;;;10.70;99.90;;;;;;5093181;28;20256;-76
2021/05/24 01:04:30;;;;;;;6.60;5.17;;;10.70;99.90;;;;;;5092694;28;20217;-77
2021/05/24 01:06:56;;;;;;;4.50;4.17;;;10.70;99.90;;;;;;5092691;28;20450;-76
2021/05/24 01:09:23;;;;;;;3.80;3.40;;;10.60;99.90;;;;;;5092819;28;20189;-76
2021/05/24 01:11:50;;;;;;;3.87;3.57;;;10.60;99.90;;;;;;5091492;28;20455;-76
2021/05/24 01:14:17;;;;;;;4.60;3.30;;;10.60;99.90;;;;;;5081263;28;20507;-76
2021/05/24 01:16:45;;;;;;;4.10;3.60;;;10.50;99.90;;;;;;5093685;28;20821;-74
2021/05/24 01:19:11;;;;;;;3.83;3.50;;;10.50;99.90;;;;;;5107982;28;20442;-75
2021/05/24 01:21:36;;;;;;;3.87;3.50;;;10.50;99.90;;;;;;5113112;28;20395;-74
2021/05/24 01:24:02;;;;;;;3.87;3.40;;;10.50;99.90;;;;;;5112987;28;20168;-75
2021/05/24 01:26:28;;;;;;;3.77;3.43;;;10.50;99.90;;;;;;5112777;28;20200;-76
2021/05/24 01:28:54;;;;;;;4.37;4.07;;;10.60;99.90;;;;;;5111657;28;20458;-76
2021/05/24 01:31:19;;;;;;;5.43;4.30;;;10.60;99.90;;;;;;5112661;28;20667;-76
2021/05/24 01:33:45;;;;;;;4.23;3.40;;;10.50;99.90;;;;;;5112863;28;20406;-77
2021/05/24 01:36:12;;;;;;;5.00;4.53;;;10.50;99.90;;;;;;5097058;28;20641;-76
2021/05/24 01:38:42;;;;;;;4.10;3.70;;;10.50;99.90;;;;;;5092295;28;20185;-76
2021/05/24 01:41:09;;;;;;;3.93;3.60;;;10.50;99.90;;;;;;5073226;28;20587;-76
2021/05/24 01:43:36;;;;;;;6.20;3.70;;;10.40;99.90;;;;;;5072136;28;20883;-75
2021/05/24 01:46:02;;;;;;;5.07;4.57;;;10.40;99.90;;;;;;5072112;28;20397;-76
2021/05/24 01:48:28;;;;;;;3.57;3.27;;;10.40;99.90;;;;;;5071182;28;20433;-76
2021/05/24 01:50:54;;;;;;;4.47;4.07;;;10.30;99.90;;;;;;5070952;28;20799;-75
2021/05/24 01:53:20;;;;;;;3.43;3.13;;;10.30;99.90;;;;;;5071599;28;20795;-75
2021/05/24 01:55:47;;;;;;;4.20;3.80;;;10.30;99.90;;;;;;5071610;28;20611;-75
2021/05/24 01:58:12;;;;;;;3.53;3.23;;;10.20;99.90;;;;;;5070022;28;22245;-75
2021/05/24 02:00:39;;;;;;;3.70;3.40;;;10.20;99.90;;;;;;5071876;28;20515;-75
2021/05/24 02:03:07;;;;;;;4.13;3.83;;;10.10;99.90;;;;;;5071712;28;20194;-75
2021/05/24 02:05:32;;;;;;;5.33;4.00;;;10.10;99.90;;;;;;5071562;28;20952;-75
2021/05/24 02:07:59;;;;;;;5.70;4.17;;;10.10;99.90;;;;;;5070507;28;20401;-75
2021/05/24 02:10:27;;;;;;;4.43;4.13;;;10.00;99.90;;;;;;5071561;28;20178;-74
2021/05/24 02:12:53;;;;;;;4.70;4.30;;;10.00;99.90;;;;;;5071606;28;20410;-75
2021/05/24 02:15:22;;;;;;;5.83;4.53;;;10.00;99.90;;;;;;5071814;28;20407;-75
2021/05/24 02:17:48;;;;;;;4.50;4.10;;;10.00;99.90;;;;;;5071230;28;20444;-75
2021/05/24 02:20:20;;;;;;;5.90;4.47;;;10.00;99.90;;;;;;5071383;28;20436;-75
2021/05/24 02:22:45;;;;;;;4.20;3.80;;;9.90;99.90;;;;;;5070132;28;20178;-75
2021/05/24 02:25:12;;;;;;;3.97;3.67;;;9.90;99.90;;;;;;5071218;28;20482;-75
2021/05/24 02:27:37;;;;;;;4.37;3.97;;;9.90;99.90;;;;;;5071232;28;20177;-75
2021/05/24 02:30:05;;;;;;;4.47;4.07;;;9.80;99.90;;;;;;5071151;28;20432;-76
2021/05/24 02:32:30;;;;;;;5.70;4.17;;;9.80;99.90;;;;;;5071066;28;20697;-75
2021/05/24 02:34:56;;;;;;;4.37;3.97;;;9.80;99.90;;;;;;5071302;28;20432;-76
2021/05/24 02:37:23;;;;;;;4.00;3.70;;;9.80;99.90;;;;;;5071145;28;20176;-75
2021/05/24 02:39:49;;;;;;;4.40;3.67;;;9.80;99.90;;;;;;5071025;28;20190;-76
2021/05/24 02:42:14;;;;;;;5.40;4.30;;;9.80;99.90;;;;;;5071198;28;21018;-76
2021/05/24 02:44:40;;;;;;;4.70;4.30;;;9.70;99.90;;;;;;5071021;28;20276;-75
2021/05/24 02:47:05;;;;;;;4.63;4.13;;;9.70;99.90;;;;;;5070745;28;20168;-75
2021/05/24 02:49:30;;;;;;;5.67;4.17;;;9.70;99.90;;;;;;5070956;28;20190;-75
2021/05/24 02:51:56;;;;;;;4.70;4.30;;;9.70;99.90;;;;;;5070741;28;20530;-75
2021/05/24 02:54:21;;;;;;;4.97;4.30;;;9.70;99.90;;;;;;5071030;28;20166;-76
2021/05/24 02:56:47;;;;;;;4.17;3.77;;;9.70;99.90;;;;;;5071121;28;20167;-76
2021/05/24 02:59:12;;;;;;;4.83;4.10;;;9.70;99.90;;;;;;5070865;28;20198;-76
2021/05/24 03:01:38;;;;;;;4.87;4.47;;;9.60;99.90;;;;;;5070903;28;20522;-76
2021/05/24 03:04:04;;;;;;;4.13;3.73;;;9.60;99.90;;;;;;5070932;28;20162;-75
2021/05/24 03:06:30;;;;;;;4.10;3.80;;;9.60;99.90;;;;;;5070728;28;20165;-76
2021/05/24 03:08:56;;;;;;;6.43;3.73;;;9.60;99.90;;;;;;5070711;28;20949;-76
2021/05/24 03:11:25;;;;;;;4.00;3.70;;;9.60;99.90;;;;;;5070867;28;20683;-76
2021/05/24 03:13:50;;;;;;;4.20;3.80;;;9.60;99.90;;;;;;5070811;28;20162;-76
2021/05/24 03:16:17;;;;;;;4.40;4.00;;;9.60;99.90;;;;;;5070414;28;20946;-77
2021/05/24 03:18:42;;;;;;;4.67;4.07;;;9.60;99.90;;;;;;5070877;28;20514;-76
2021/05/24 03:21:08;;;;;;;5.30;3.97;;;9.60;99.90;;;;;;5074864;28;20441;-75
2021/05/24 03:23:34;;;;;;;4.80;4.30;;;9.50;99.90;;;;;;5075036;28;20188;-75
2021/05/24 03:25:59;;;;;;;4.23;3.80;;;9.50;99.90;;;;;;5075030;28;20222;-75
2021/05/24 03:28:25;;;;;;;4.20;3.90;;;9.50;99.90;;;;;;5075343;28;20212;-76
2021/05/24 03:30:50;;;;;;;5.13;3.70;;;9.50;99.90;;;;;;5075365;28;20196;-75
2021/05/24 03:33:16;;;;;;;4.03;3.73;;;9.50;99.90;;;;;;5074973;28;20174;-75
2021/05/24 03:35:41;;;;;;;4.47;4.10;;;9.50;99.90;;;;;;5075146;28;20291;-75
2021/05/24 03:38:07;;;;;;;3.57;3.27;;;9.50;99.90;;;;;;5074083;28;20162;-75
2021/05/24 03:40:33;;;;;;;4.30;4.00;;;9.50;99.90;;;;;;5074354;28;20182;-75
2021/05/24 03:42:59;;;;;;;4.53;4.13;;;9.50;99.90;;;;;;5078451;28;20178;-75
2021/05/24 03:45:27;;;;;;;4.77;3.63;;;9.60;99.90;;;;;;5094721;28;20180;-76
2021/05/24 03:47:53;;;;;;;3.63;3.33;;;9.60;99.90;;;;;;5094254;28;20169;-76
2021/05/24 03:50:19;;;;;;;5.57;4.47;;;9.60;99.90;;;;;;5094360;28;20490;-75
2021/05/24 03:52:45;;;;;;;3.60;3.30;;;9.60;99.90;;;;;;5094406;28;20473;-75
2021/05/24 03:55:13;;;;;;;3.87;3.53;;;9.60;99.90;;;;;;5094509;28;20849;-75
2021/05/24 03:57:39;;;;;;;4.93;4.10;;;9.70;99.90;;;;;;5094179;28;20177;-76
2021/05/24 04:00:07;;;;;;;4.30;4.00;;;9.70;99.90;;;;;;5094401;28;20433;-76
2021/05/24 04:02:32;;;;;;;4.00;3.60;;;9.80;99.90;;;;;;5094204;28;20166;-75
2021/05/24 04:04:59;;;;;;;3.87;3.20;;;9.80;99.90;;;;;;5094288;28;20539;-75
2021/05/24 04:07:25;;;;;;;3.63;3.33;;;9.80;99.90;;;;;;5093940;28;20223;-75
2021/05/24 04:09:51;;;;;;;4.07;3.60;;;9.90;99.90;;;;;;5094235;28;20423;-75
2021/05/24 04:12:18;;;;;;;4.60;3.70;;;10.00;99.90;;;;;;5094082;28;20321;-75
2021/05/24 04:14:43;;;;;;;3.30;3.03;;;10.10;99.90;;;;;;5094114;28;20470;-75
2021/05/24 04:17:12;;;;;;;4.13;3.73;;;10.10;99.90;;;;;;5093685;28;20395;-75
2021/05/24 04:19:39;;;;;;;3.20;2.90;;;10.20;99.90;;;;;;5093889;28;20178;-75
2021/05/24 04:22:05;;;;;;;5.60;3.80;;;10.20;99.90;;;;;;5093895;28;20448;-75
2021/05/24 04:24:30;;;;;;;3.60;3.30;;;10.30;99.90;;;;;;5093932;28;20411;-75
2021/05/24 04:26:56;;;;;;;3.73;3.17;;;10.50;99.90;;;;;;5093578;28;20198;-75
2021/05/24 04:29:21;;;;;;;4.00;3.63;;;10.60;99.90;;;;;;5092537;28;20640;-75
2021/05/24 04:31:47;;;;;;;3.70;3.40;;;10.80;99.90;;;;;;5092536;28;20238;-75
2021/05/24 04:34:12;;;;;;;4.10;3.50;;;11.20;99.90;;;;;;5093676;28;20176;-76
2021/05/24 04:36:38;;;;;;;3.17;2.93;;;11.30;99.90;;;;;;5093418;28;20173;-75
2021/05/24 04:39:04;;;;;;;4.10;3.13;;;11.40;99.90;;;;;;5093619;28;20196;-76
2021/05/24 04:41:29;;;;;;;2.80;2.53;;;11.30;99.90;;;;;;5093632;28;20226;-76
2021/05/24 04:43:58;;;;;;;5.90;3.20;;;11.10;99.90;;;;;;5092594;28;20510;-76
2021/05/24 04:46:23;;;;;;;2.90;2.70;;;11.40;99.90;;;;;;5093520;28;20223;-76
2021/05/24 04:48:49;;;;;;;2.63;2.30;;;11.40;99.90;;;;;;5095347;28;20435;-76
2021/05/24 04:51:14;;;;;;;2.83;2.43;;;11.60;99.90;;;;;;5094048;28;20201;-76
2021/05/24 04:53:40;;;;;;;2.83;2.50;;;11.70;99.90;;;;;;5093690;28;20215;-76
2021/05/24 04:56:05;;;;;;;3.43;2.30;;;12.20;99.90;;;;;;5092037;28;20177;-76
2021/05/24 04:58:31;;;;;;;2.60;2.40;;;12.60;99.90;;;;;;5093111;28;20679;-76
2021/05/24 05:00:57;;;;;;;2.17;1.87;;;12.80;99.90;;;;;;5092992;28;20174;-75
2021/05/24 05:03:23;;;;;;;2.30;2.10;;;13.10;99.90;;;;;;5093135;28;20186;-76
2021/05/24 05:05:48;;;;;;;2.40;2.20;;;13.00;99.90;;;;;;5093282;28;20494;-76
2021/05/24 05:08:14;;;;;;;3.63;1.80;;;13.70;99.90;;;;;;5092976;28;20196;-75
2021/05/24 05:10:39;;;;;;;2.53;2.30;;;14.50;99.90;;;;;;5091645;28;20632;-75
2021/05/24 05:13:05;;;;;;;2.90;1.87;;;14.00;99.90;;;;;;5091632;28;20169;-75
2021/05/24 05:15:31;;;;;;;4.83;1.97;;;14.10;99.90;;;;;;5092934;28;20167;-75
2021/05/24 05:17:56;;;;;;;2.13;1.60;;;13.90;99.90;;;;;;5092448;28;20192;-75
2021/05/24 05:20:22;;;;;;;1.57;1.47;;;14.00;99.90;;;;;;5092984;28;20200;-76
2021/05/24 05:22:47;;;;;;;1.93;1.83;;;14.30;99.90;;;;;;5093019;28;20636;-76
2021/05/24 05:25:13;;;;;;;2.37;1.90;;;15.20;99.90;;;;;;5092886;28;20217;-76
2021/05/24 05:27:39;;;;;;;2.00;1.50;;;14.80;99.90;;;;;;5092680;28;20155;-76
2021/05/24 05:30:05;;;;;;;2.30;2.07;;;15.00;99.90;;;;;;5092661;28;20595;-76
2021/05/24 05:32:31;;;;;;;2.17;1.97;;;15.20;99.90;;;;;;5092477;28;20197;-76
2021/05/24 05:34:57;;;;;;;2.37;2.17;;;15.60;99.90;;;;;;5092585;28;20880;-76
2021/05/24 05:37:22;;;;;;;6.07;2.20;;;15.30;99.90;;;;;;5092269;28;20163;-77
2021/05/24 05:39:53;;;;;;;2.07;1.97;;;15.70;99.90;;;;;;5092722;28;20261;-76
2021/05/24 05:42:20;;;;;;;1.70;1.60;;;15.50;99.90;;;;;;5092358;28;20632;-76
2021/05/24 05:44:46;;;;;;;1.60;1.50;;;15.20;99.90;;;;;;5082949;28;20437;-76
2021/05/24 05:47:11;;;;;;;2.40;2.20;;;15.30;99.90;;;;;;5071651;28;20807;-75
2021/05/24 05:49:37;;;;;;;4.00;1.87;;;15.70;99.90;;;;;;5071926;28;20185;-75
2021/05/24 05:52:04;;;;;;;2.10;1.43;;;16.00;99.90;;;;;;5072067;28;20209;-77
2021/05/24 05:54:29;;;;;;;3.73;1.90;;;16.10;99.90;;;;;;5072187;28;20575;-76
2021/05/24 05:56:55;;;;;;;2.33;1.60;;;16.20;99.90;;;;;;5071835;28;20414;-76
2021/05/24 05:59:20;;;;;;;2.10;1.90;;;16.40;99.90;;;;;;5070366;28;20711;-76
2021/05/24 06:01:47;;;;;;;1.93;1.83;;;16.30;99.90;;;;;;5071965;28;20168;-76
2021/05/24 06:04:12;;;;;;;2.30;1.80;;;16.50;99.90;;;;;;5072403;28;20192;-76
2021/05/24 06:06:38;;;;;;;3.00;2.03;;;17.20;99.90;;;;;;5072120;28;20810;-76
2021/05/24 06:09:04;;;;;;;1.63;1.50;;;17.50;99.90;;;;;;5071534;28;20190;-76
2021/05/24 06:11:29;;;;;;;2.33;1.70;;;17.40;99.90;;;;;;5071996;28;20220;-76
2021/05/24 06:13:55;;;;;;;2.33;1.80;;;17.20;99.90;;;;;;5071673;28;20441;-76
2021/05/24 06:16:20;;;;;;;1.50;1.40;;;17.30;99.90;;;;;;5071327;28;20261;-75
2021/05/24 06:18:46;;;;;;;2.10;2.00;;;18.00;99.90;;;;;;5071670;28;20184;-75
2021/05/24 06:21:11;;;;;;;1.90;1.77;;;18.90;99.90;;;;;;5070346;28;20172;-76
2021/05/24 06:23:37;;;;;;;1.77;1.53;;;18.10;99.90;;;;;;5071582;28;20173;-75
2021/05/24 06:26:04;;;;;;;1.50;1.37;;;18.90;99.90;;;;;;5071407;28;20204;-75
2021/05/24 06:28:29;;;;;;;2.20;1.50;;;19.30;99.90;;;;;;5071284;28;20184;-75
2021/05/24 06:30:55;;;;;;;1.40;1.30;;;19.10;99.90;;;;;;5071162;28;20517;-76
2021/05/24 06:33:20;;;;;;;2.63;1.40;;;18.50;99.90;;;;;;5071222;28;20250;-75
2021/05/24 06:35:46;;;;;;;1.50;1.23;;;19.40;99.90;;;;;;5071448;28;20646;-75
2021/05/24 06:38:11;;;;;;;1.67;1.27;;;18.70;99.90;;;;;;5071138;28;20180;-76
2021/05/24 06:40:37;;;;;;;5.00;1.50;;;19.50;99.90;;;;;;5071481;28;20180;-75
2021/05/24 06:43:02;;;;;;;3.23;1.83;;;18.60;99.90;;;;;;5071076;28;20184;-75
2021/05/24 06:45:28;;;;;;;2.40;1.50;;;19.90;99.90;;;;;;5071069;28;20169;-75
2021/05/24 06:47:53;;;;;;;1.20;1.03;;;19.50;99.90;;;;;;5070649;28;20341;-75
2021/05/24 06:50:19;;;;;;;1.50;1.20;;;19.90;99.90;;;;;;5071209;28;20173;-75
2021/05/24 06:52:44;;;;;;;1.50;1.30;;;20.30;99.90;;;;;;5071163;28;20664;-74
2021/05/24 06:55:11;;;;;;;1.60;1.20;;;21.10;99.90;;;;;;5070571;28;20278;-75
2021/05/24 06:57:37;;;;;;;2.30;1.60;;;21.90;99.90;;;;;;5070582;28;20182;-75
2021/05/24 07:00:07;;;;;;;2.40;1.30;;;20.50;99.90;;;;;;5071362;28;20419;-76
2021/05/24 07:02:32;;;;;;;1.97;1.30;;;20.20;99.90;;;;;;5071420;28;20409;-76
2021/05/24 07:04:57;;;;;;;1.70;1.40;;;20.60;99.90;;;;;;5071758;28;20463;-75
2021/05/24 07:07:23;;;;;;;2.13;1.30;;;21.80;98.20;;;;;;5071461;28;20181;-74
2021/05/24 07:09:48;;;;;;;4.30;1.40;;;20.60;99.60;;;;;;5070147;28;20189;-77
2021/05/24 07:12:14;;;;;;;2.63;1.50;;;20.70;99.90;;;;;;5069909;28;20216;-76
2021/05/24 07:14:42;;;;;;;1.30;1.20;;;20.40;99.90;;;;;;5071249;28;20167;-76
2021/05/24 07:17:08;;;;;;;1.30;1.20;;;21.70;99.90;;;;;;5070851;28;20168;-76
2021/05/24 07:19:33;;;;;;;1.57;1.47;;;21.00;98.90;;;;;;5071030;28;20443;-75
2021/05/24 07:21:58;;;;;;;1.30;1.20;;;21.20;98.80;;;;;;5070962;28;20217;-75
2021/05/24 07:24:24;;;;;;;2.60;1.37;;;21.80;98.90;;;;;;5071243;28;20219;-75
2021/05/24 07:26:50;;;;;;;1.53;1.10;;;21.70;97.70;;;;;;5071043;28;20227;-76
2021/05/24 07:29:17;;;;;;;3.20;1.37;;;21.50;97.90;;;;;;5071163;28;20199;-76
2021/05/24 07:31:43;;;;;;;2.83;1.40;;;22.40;96.70;;;;;;5079170;28;20447;-75
2021/05/24 07:34:08;;;;;;;1.33;1.20;;;21.20;97.00;;;;;;5073466;28;20465;-76
2021/05/24 07:36:34;;;;;;;1.50;1.00;;;22.40;97.60;;;;;;5074674;28;20168;-75
2021/05/24 07:38:59;;;;;;;2.97;1.77;;;22.50;97.10;;;;;;5091298;28;20182;-76
2021/05/24 07:41:25;;;;;;;1.57;1.47;;;22.10;97.20;;;;;;5089818;28;20215;-75
2021/05/24 07:43:50;;;;;;;1.40;0.97;;;22.30;95.80;;;;;;5091272;28;20168;-76
2021/05/24 07:46:16;;;;;;;2.33;1.10;;;21.70;95.60;;;;;;5090758;28;20173;-78
2021/05/24 07:48:41;;;;;;;3.10;1.40;;;23.20;94.40;;;;;;5093284;28;20191;-75
2021/05/24 07:51:07;;;;;;;1.43;0.97;;;22.40;95.50;;;;;;5102963;28;20237;-75
2021/05/24 07:53:32;;;;;;;2.63;1.40;;;23.60;92.70;;;;;;5111478;28;20168;-75
2021/05/24 07:55:58;;;;;;;1.60;1.50;;;22.80;93.50;;;;;;5111726;28;20192;-75
2021/05/24 07:58:24;;;;;;;1.30;1.20;;;22.60;92.50;;;;;;5110979;28;20264;-75
2021/05/24 08:00:49;;;;;;;1.80;1.07;;;22.60;92.60;;;;;;5111459;28;20301;-75
2021/05/24 08:03:15;;;;;;;2.30;1.30;;;22.40;95.30;;;;;;5111286;28;20543;-75
2021/05/24 08:05:40;;;;;;;1.50;1.20;;;22.90;93.70;;;;;;5111368;28;20163;-76
2021/05/24 08:08:06;;;;;;;2.20;1.27;;;22.80;93.00;;;;;;5106186;28;20578;-74
2021/05/24 08:10:32;;;;;;;1.37;0.80;;;22.70;92.80;;;;;;5090205;28;20191;-75
2021/05/24 08:12:57;;;;;;;2.10;0.93;;;22.10;92.70;;;;;;5086428;28;20671;-76
2021/05/24 08:15:35;;;;;;;3.30;1.17;;;22.30;91.40;;;;;;5074598;28;20411;-75
2021/05/24 08:18:04;;;;;;;1.60;1.00;;;22.50;92.80;;;;;;5075065;28;20217;-76
2021/05/24 08:20:30;;;;;;;1.30;0.90;;;22.00;91.30;;;;;;5074107;28;20415;-75
2021/05/24 08:22:55;;;;;;;1.43;0.90;;;22.00;90.70;;;;;;5074230;28;20402;-75
2021/05/24 08:25:21;;;;;;;1.20;0.97;;;22.60;90.50;;;;;;5079719;28;20411;-75
2021/05/24 08:27:47;;;;;;;1.70;0.80;;;22.20;90.20;;;;;;5106143;28;20167;-75
2021/05/24 08:30:13;;;;;;;1.50;1.07;;;22.10;90.40;;;;;;5114969;28;20189;-75
2021/05/24 08:32:39;;;;;;;0.97;0.87;;;23.10;89.80;;;;;;5098861;28;20457;-75
2021/05/24 08:35:06;;;;;;;1.63;0.90;;;22.40;90.00;;;;;;5074179;28;20937;-75
2021/05/24 08:37:32;;;;;;;1.90;1.30;;;22.30;90.20;;;;;;5074094;28;20587;-75
2021/05/24 08:39:58;;;;;;;2.50;1.57;;;22.00;91.80;;;;;;5073911;28;20416;-75
2021/05/24 08:42:28;;;;;;;1.70;1.00;;;22.10;91.70;;;;;;5074844;28;20627;-75
2021/05/24 08:44:56;;;;;;;1.20;0.90;;;21.50;89.60;;;;;;5073947;28;20166;-76
2021/05/24 08:47:22;;;;;;;1.13;1.00;;;20.70;91.00;;;;;;5073575;28;20412;-76
2021/05/24 08:49:48;;;;;;;1.63;1.40;;;20.60;91.80;;;;;;5073822;28;20496;-75
2021/05/24 08:52:14;;;;;;;2.90;1.53;;;20.30;92.80;;;;;;5073550;28;20453;-74
2021/05/24 08:54:40;;;;;;;1.50;0.80;;;21.00;93.70;;;;;;5073535;28;20172;-76
2021/05/24 08:57:05;;;;;;;1.83;1.00;;;22.20;88.70;;;;;;5073514;28;20512;-75
2021/05/24 08:59:31;;;;;;;1.27;1.00;;;21.60;86.90;;;;;;5073670;28;20610;-75
2021/05/24 09:01:57;;;;;;;1.57;0.90;;;20.90;90.10;;;;;;5073568;28;20248;-75
2021/05/24 09:04:40;;;;;;;1.63;0.70;;;20.40;90.50;;;;;;5073556;28;20169;-75
2021/05/24 09:07:06;;;;;;;2.27;1.20;;;20.30;90.60;;;;;;5073386;28;20203;-75
2021/05/24 09:09:32;;;;;;;1.40;1.10;;;19.90;91.60;;;;;;5076409;28;20430;-76
2021/05/24 09:11:57;;;;;;;2.63;0.97;;;19.60;92.20;;;;;;5093591;28;20789;-76
2021/05/24 09:14:25;;;;;;;2.03;1.00;;;19.60;91.10;;;;;;5093558;28;20188;-74
2021/05/24 09:16:55;;;;;;;2.80;1.20;;;19.60;91.60;;;;;;5096658;28;20176;-74
2021/05/24 09:19:22;;;;;;;1.57;1.20;;;19.70;91.70;;;;;;5103882;28;20425;-75
2021/05/24 09:21:59;;;;;;;1.90;1.00;;;19.60;90.70;;;;;;5112261;28;20432;-75
2021/05/24 09:24:33;;;;;;;1.93;1.33;;;19.70;90.50;;;;;;5113699;28;20399;-74
2021/05/24 09:27:01;;;;;;;1.83;1.23;;;19.60;89.30;;;;;;5113488;28;20882;-74
2021/05/24 09:29:39;;;;;;;1.63;1.13;;;19.80;90.00;;;;;;5113662;28;20418;-75
2021/05/24 09:32:18;;;;;;;1.60;0.90;;;19.70;87.60;;;;;;5113523;28;20454;-75
2021/05/24 09:34:45;;;;;;;0.97;0.80;;;19.40;85.80;;;;;;5113641;28;20403;-74
2021/05/24 09:37:12;;;;;;;1.47;0.90;;;19.50;87.00;;;;;;5113236;28;20754;-75
2021/05/24 09:39:38;;;;;;;2.60;1.13;;;19.90;86.50;;;;;;5096956;28;20424;-75
2021/05/24 09:42:06;;;;;;;1.63;0.90;;;20.00;87.30;;;;;;5093105;28;20431;-75
2021/05/24 09:44:33;;;;;;;1.00;0.87;;;20.20;86.60;;;;;;5082400;28;20497;-75
2021/05/24 09:47:00;;;;;;;1.80;1.00;;;20.00;85.60;;;;;;5072227;28;20487;-75
2021/05/24 09:49:31;;;;;;;1.53;1.03;;;19.60;86.30;;;;;;5072531;28;20467;-75
2021/05/24 09:51:59;;;;;;;1.70;1.17;;;19.70;89.90;;;;;;5072702;28;20553;-74
2021/05/24 09:54:36;;;;;;;0.93;0.90;;;20.30;86.10;;;;;;5072650;28;20407;-75
2021/05/24 09:57:06;;;;;;;1.37;0.97;;;20.40;85.70;;;;;;5072081;28;20400;-75
2021/05/24 09:59:34;;;;;;;1.07;0.90;;;20.90;86.40;;;;;;5072342;28;20800;-75
2021/05/24 10:02:02;;;;;;;2.43;0.83;;;21.00;85.10;;;;;;5072293;28;20767;-75
2021/05/24 10:04:30;;;;;;;1.83;0.87;;;21.10;84.70;;;;;;5072213;28;20399;-75
2021/05/24 10:06:57;;;;;;;1.37;1.00;;;20.60;84.90;;;;;;5072025;28;20423;-75
2021/05/24 10:09:24;;;;;;;1.40;0.90;;;20.80;86.30;;;;;;5072208;28;20417;-76
2021/05/24 10:11:51;;;;;;;1.10;1.00;;;20.80;83.70;;;;;;5083127;28;20454;-77
2021/05/24 10:14:19;;;;;;;2.07;1.10;;;20.70;83.80;;;;;;5093437;28;20996;-74
2021/05/24 10:16:48;;;;;;;2.40;2.03;;;20.30;87.10;;;;;;5090839;28;20410;-74
2021/05/24 10:19:17;;;;;;;1.57;1.00;;;20.40;83.70;;;;;;5092206;28;20423;-75
2021/05/24 10:21:47;;;;;;;1.73;0.87;;;20.50;85.40;;;;;;5090928;28;20447;-74
2021/05/24 10:24:15;;;;;;;2.10;1.00;;;20.50;84.00;;;;;;5092115;28;20455;-73
2021/05/24 10:26:43;;;;;;;2.37;1.10;;;19.90;84.20;;;;;;5091977;28;20413;-76
2021/05/24 10:29:10;;;;;;;1.27;0.83;;;20.40;86.50;;;;;;5091419;28;20416;-76
2021/05/24 10:31:36;;;;;;;3.53;1.00;;;21.10;82.90;;;;;;5079037;28;20965;-74
2021/05/24 10:34:19;;;;;;;5.63;0.77;;;21.30;82.30;;;;;;5071574;28;20414;-74
2021/05/24 10:36:47;;;;;;;3.50;1.77;;;20.90;79.60;;;;;;5071673;28;20164;-74
2021/05/24 10:39:24;;;;;;;3.10;0.93;;;20.70;82.00;;;;;;5071673;28;20514;-75
2021/05/24 10:41:55;;;;;;;1.43;1.00;;;20.80;81.70;;;;;;5071555;28;20932;-75
2021/05/24 10:44:23;;;;;;;1.43;0.97;;;20.70;81.20;;;;;;5071634;28;20775;-73
2021/05/24 10:46:53;;;;;;;2.50;1.40;;;20.60;82.10;;;;;;5071450;28;20943;-75
2021/05/24 10:49:26;;;;;;;1.90;0.80;;;20.80;80.50;;;;;;5071655;28;20934;-75
2021/05/24 10:51:55;;;;;;;1.57;1.10;;;20.80;80.30;;;;;;5092558;28;20445;-74
2021/05/24 10:54:20;;;;;;;0.83;0.80;;;21.00;78.70;;;;;;5091974;28;20395;-76
2021/05/24 10:56:58;;;;;;;1.37;0.90;;;21.10;77.80;;;;;;5091977;28;20437;-75
2021/05/24 10:59:43;;;;;;;1.33;0.90;;;20.90;79.40;;;;;;5091573;28;20191;-75
2021/05/24 11:02:12;;;;;;;1.00;0.90;;;20.90;77.30;;;;;;5091494;28;20403;-75
2021/05/24 11:05:12;;;;;;;1.07;0.97;;;20.90;76.90;;;;;;5091557;28;20512;-75
2021/05/24 11:07:53;;;;;;;1.10;0.90;;;21.00;77.10;;;;;;5091411;28;20473;-75
2021/05/24 11:10:23;;;;;;;3.03;1.10;;;21.00;76.40;;;;;;5091240;28;20432;-75
2021/05/24 11:13:17;;;;;;;1.70;1.00;;;21.40;77.40;;;;;;5091240;28;20454;-75
2021/05/24 11:15:44;;;;;;;1.10;1.00;;;21.30;77.90;;;;;;5091597;28;20941;-76
2021/05/24 11:18:11;;;;;;;1.10;1.00;;;21.50;79.30;;;;;;5090862;28;20416;-76
2021/05/24 11:20:48;;;;;;;2.40;1.20;;;21.50;77.90;;;;;;5091433;28;20427;-76
2021/05/24 11:23:32;;;;;;;0.93;0.87;;;21.50;76.50;;;;;;5091781;28;20906;-76
2021/05/24 11:29:07;;;;;;;1.87;1.27;;;21.30;76.10;;;;;;5091308;28;20522;-75
2021/05/24 11:31:40;;;;;;;1.40;1.30;;;21.40;75.30;;;;;;5089801;28;20498;-75
2021/05/24 11:34:25;;;;;;;1.13;1.03;;;21.10;73.60;;;;;;5091403;28;20459;-75
2021/05/24 11:36:52;;;;;;;1.20;0.87;;;20.90;74.50;;;;;;5091313;28;20394;-73
2021/05/24 11:39:35;;;;;;;1.73;1.00;;;21.10;77.10;;;;;;5091235;28;20478;-75
2021/05/24 11:42:07;;;;;;;2.10;1.30;;;21.40;78.40;;;;;;5095458;28;20480;-75
2021/05/24 11:44:45;;;;;;;1.23;0.90;;;21.00;78.20;;;;;;5095268;28;20495;-75
2021/05/24 11:47:20;;;;;;;1.03;0.93;;;20.80;80.50;;;;;;5095028;28;20413;-75
2021/05/24 11:49:52;;;;;;;1.63;1.03;;;21.10;81.20;;;;;;5094913;28;20429;-75
2021/05/24 11:52:20;;;;;;;1.00;0.90;;;21.30;80.70;;;;;;5095282;28;20888;-75
2021/05/24 11:54:50;;;;;;;1.60;1.10;;;21.30;78.80;;;;;;5093935;28;20904;-76
2021/05/24 11:57:18;;;;;;;1.23;1.10;;;21.40;79.30;;;;;;5094727;28;20408;-76
2021/05/24 11:59:44;;;;;;;2.37;0.90;;;21.00;75.80;;;;;;5095054;28;20477;-76
2021/05/24 12:02:10;;;;;;;4.87;1.07;;;21.00;77.30;;;;;;5094558;28;20896;-76
2021/05/24 12:04:41;;;;;;;1.67;1.17;;;21.10;77.30;;;;;;5095137;28;20410;-76
2021/05/24 12:07:11;;;;;;;1.37;0.90;;;21.20;77.10;;;;;;5093628;28;20409;-76
2021/05/24 12:09:45;;;;;;;2.83;1.10;;;21.30;76.40;;;;;;5095037;28;21008;-74
2021/05/24 12:12:13;;;;;;;1.73;1.03;;;21.60;76.50;;;;;;5094481;28;20448;-75
2021/05/24 12:14:41;;;;;;;1.93;1.10;;;21.50;76.60;;;;;;5094650;28;20773;-75
2021/05/24 12:17:09;;;;;;;1.10;0.90;;;20.90;77.60;;;;;;5100515;28;20565;-75
2021/05/24 12:19:35;;;;;;;2.30;1.07;;;20.80;76.00;;;;;;5105165;28;20421;-75
2021/05/24 12:22:06;;;;;;;2.50;1.40;;;20.80;76.50;;;;;;5114916;28;20415;-75
2021/05/24 12:24:34;;;;;;;1.20;1.00;;;20.80;76.70;;;;;;5114999;28;20408;-75
2021/05/24 12:26:59;;;;;;;2.50;1.63;;;20.70;75.60;;;;;;5114647;28;20401;-75
2021/05/24 12:29:28;;;;;;;2.50;1.03;;;20.90;75.60;;;;;;5114735;28;20786;-74
2021/05/24 12:31:58;;;;;;;1.37;0.90;;;21.20;76.50;;;;;;5114638;28;20196;-75
2021/05/24 12:34:43;;;;;;;0.97;0.80;;;21.50;75.40;;;;;;5114874;28;20407;-75
2021/05/24 12:37:12;;;;;;;1.63;1.00;;;21.20;76.30;;;;;;5114533;28;20496;-75
2021/05/24 12:39:43;;;;;;;1.00;0.90;;;21.10;76.10;;;;;;5114453;28;20417;-75
2021/05/24 12:42:10;;;;;;;2.30;1.50;;;21.00;76.30;;;;;;5114640;28;20524;-75
2021/05/24 12:44:38;;;;;;;2.70;1.87;;;21.00;75.00;;;;;;5114739;28;20756;-75
2021/05/24 12:47:14;;;;;;;2.10;1.77;;;21.40;77.00;;;;;;5114322;28;20396;-75
2021/05/24 12:49:41;;;;;;;3.70;2.00;;;21.50;72.30;;;;;;5113237;28;20431;-76
2021/05/24 12:52:08;;;;;;;3.47;2.00;;;21.10;72.90;;;;;;5113349;28;20538;-75